createdAt,value
2016-11-06T00:00:12.424Z,94.27
2016-11-06T00:00:53.991Z,94.08
2016-11-06T00:01:35.431Z,94.18
2016-11-06T00:03:30.132Z,95.32
2016-11-06T00:04:11.792Z,95.89
2016-11-06T00:04:53.484Z,95.89
2016-11-06T00:05:35.229Z,95.79
2016-11-06T00:06:16.887Z,96.36
2016-11-06T00:06:58.391Z,96.26
2016-11-06T00:07:39.879Z,96.55
2016-11-06T00:08:21.735Z,96.45
2016-11-06T00:09:03.495Z,96.26
2016-11-06T00:09:45.141Z,96.17
2016-11-06T00:10:26.752Z,95.89
2016-11-06T00:11:08.350Z,96.65
2016-11-06T00:11:49.952Z,96.74
2016-11-06T00:12:31.712Z,96.93
2016-11-06T00:13:13.263Z,96.74
2016-11-06T00:13:54.944Z,97.12
2016-11-06T00:14:36.598Z,96.26
2016-11-06T00:15:18.162Z,95.41
2016-11-06T00:15:59.902Z,95.22
2016-11-06T00:16:41.526Z,95.03
2016-11-06T00:17:23.241Z,95.22
2016-11-06T00:18:04.958Z,95.41
2016-11-06T00:18:46.670Z,95.41
2016-11-06T00:19:28.344Z,96.17
2016-11-06T00:20:10.052Z,96.36
2016-11-06T00:20:51.919Z,96.55
2016-11-06T00:23:12.703Z,95.51
2016-11-06T00:23:54.326Z,95.51
2016-11-06T00:24:36.010Z,96.36
2016-11-06T00:25:17.638Z,96.45
2016-11-06T00:25:59.334Z,95.89
2016-11-06T00:26:40.967Z,96.55
2016-11-06T00:27:22.638Z,96.84
2016-11-06T00:28:04.465Z,97.12
2016-11-06T00:28:46.095Z,97.03
2016-11-06T00:29:27.788Z,97.41
2016-11-06T00:31:48.387Z,97.6
2016-11-06T00:32:30.227Z,97.6
2016-11-06T00:33:12.003Z,97.88
2016-11-06T00:33:53.736Z,98.07
2016-11-06T00:34:35.454Z,97.78
2016-11-06T00:35:17.147Z,98.17
2016-11-06T00:35:58.786Z,97.88
2016-11-06T00:36:40.430Z,97.88
2016-11-06T00:37:22.051Z,97.97
2016-11-06T00:38:03.859Z,97.78
2016-11-06T00:38:45.623Z,97.78
2016-11-06T00:39:27.494Z,97.22
2016-11-06T00:41:48.093Z,97.03
2016-11-06T00:42:29.706Z,96.93
2016-11-06T00:43:11.469Z,96.74
2016-11-06T00:45:26.729Z,95.79
2016-11-06T00:46:08.322Z,96.45
2016-11-06T00:46:50.029Z,95.79
2016-11-06T00:47:31.754Z,96.45
2016-11-06T00:48:13.471Z,96.55
2016-11-06T00:48:55.149Z,96.55
2016-11-06T00:49:36.808Z,95.51
2016-11-06T00:51:31.540Z,94.27
2016-11-06T00:53:46.933Z,95.41
2016-11-06T00:54:28.575Z,95.98
2016-11-06T00:55:10.259Z,96.12
2016-11-06T00:57:30.932Z,96.08
2016-11-06T00:58:12.642Z,96.55
2016-11-06T00:58:54.335Z,96.5
2016-11-06T00:59:36.048Z,96.55
2016-11-06T01:00:17.651Z,96.36
2016-11-06T01:02:17.695Z,97.03
2016-11-06T01:02:59.382Z,97.6
2016-11-06T01:03:41.241Z,97.5
2016-11-06T01:04:22.902Z,97.78
2016-11-06T01:05:04.434Z,97.74
2016-11-06T01:05:46.092Z,96.93
2016-11-06T01:06:27.718Z,96.74
2016-11-06T01:07:09.581Z,96.84
2016-11-06T01:07:51.075Z,96.55
2016-11-06T01:10:11.560Z,97.12
2016-11-06T01:12:00.956Z,97.5
2016-11-06T01:12:42.451Z,96.93
2016-11-06T01:13:24.199Z,97.03
2016-11-06T01:14:05.695Z,96.45
2016-11-06T01:14:47.256Z,95.79
2016-11-06T01:15:28.930Z,94.56
2016-11-06T01:16:10.370Z,94.37
2016-11-06T01:16:51.946Z,93.7
2016-11-06T01:17:33.634Z,93.79
2016-11-06T01:18:15.272Z,93.7
2016-11-06T01:18:56.896Z,93.7
2016-11-06T01:19:38.615Z,93.51
2016-11-06T01:20:20.362Z,93.51
2016-11-06T01:21:01.827Z,94.18
2016-11-06T01:21:43.608Z,94.37
2016-11-06T01:22:25.362Z,95.12
2016-11-06T01:23:06.991Z,94.46
2016-11-06T01:23:48.839Z,93.99
2016-11-06T01:26:09.628Z,93.13
2016-11-06T01:26:51.272Z,93.23
2016-11-06T01:27:33.019Z,93.6
2016-11-06T01:28:14.574Z,93.7
2016-11-06T01:28:56.447Z,94.27
2016-11-06T01:29:38.128Z,94.65
2016-11-06T01:30:19.869Z,94.46
2016-11-06T01:31:01.570Z,94.56
2016-11-06T01:31:43.180Z,94.74
2016-11-06T01:34:04.027Z,95.7
2016-11-06T01:34:45.729Z,96.55
2016-11-06T01:35:27.465Z,95.51
2016-11-06T01:37:16.885Z,96.08
2016-11-06T01:37:58.546Z,96.26
2016-11-06T01:38:40.242Z,96.84
2016-11-06T01:39:22.029Z,96.55
2016-11-06T01:41:16.784Z,96.22
2016-11-06T01:41:58.535Z,96.41
2016-11-06T01:44:13.874Z,96.03
2016-11-06T01:46:03.282Z,96.69
2016-11-06T01:46:45.032Z,96.6
2016-11-06T01:47:26.522Z,97.36
2016-11-06T01:48:08.230Z,96.79
2016-11-06T01:48:49.829Z,97.07
2016-11-06T01:49:31.386Z,97.07
2016-11-06T01:50:13.020Z,96.79
2016-11-06T01:50:54.786Z,97.17
2016-11-06T01:51:36.481Z,97.55
2016-11-06T01:52:18.163Z,97.55
2016-11-06T01:52:59.926Z,97.64
2016-11-06T01:53:41.664Z,97.83
2016-11-06T01:54:23.405Z,97.45
2016-11-06T01:56:12.825Z,98.4
2016-11-06T01:56:54.419Z,97.83
2016-11-06T01:57:36.025Z,98.21
2016-11-06T01:58:17.709Z,98.02
2016-11-06T01:58:59.336Z,98.31
2016-11-06T01:59:40.349Z,98.21
2016-11-06T02:00:20.887Z,98.5
2016-11-06T02:01:01.415Z,98.21
2016-11-06T02:01:41.949Z,98.5
2016-11-06T02:02:22.473Z,99.16
2016-11-06T02:03:02.997Z,99.26
2016-11-06T02:03:43.542Z,99.35
2016-11-06T02:04:24.082Z,99.73
2016-11-06T02:05:04.605Z,99.16
2016-11-06T02:05:45.157Z,99.54
2016-11-06T02:06:25.680Z,99.73
2016-11-06T02:07:06.220Z,99.64
2016-11-06T02:07:46.758Z,99.73
2016-11-06T02:08:27.282Z,99.35
2016-11-06T02:09:07.816Z,99.99
2016-11-06T02:09:48.338Z,99.99
2016-11-06T02:10:28.867Z,99.99
2016-11-06T02:11:09.411Z,99.99
2016-11-06T02:11:49.948Z,99.99
2016-11-06T02:12:30.487Z,99.99
2016-11-06T02:13:11.025Z,99.99
2016-11-06T02:13:51.545Z,99.99
2016-11-06T02:14:32.076Z,99.99
2016-11-06T02:15:12.614Z,99.99
2016-11-06T02:15:53.150Z,99.99
2016-11-06T02:16:33.710Z,99.99
2016-11-06T02:17:14.332Z,99.99
2016-11-06T02:17:54.850Z,99.99
2016-11-06T02:18:35.386Z,99.99
2016-11-06T02:19:15.928Z,99.99
2016-11-06T02:19:56.470Z,99.99
2016-11-06T02:20:37.001Z,99.99
2016-11-06T02:21:17.527Z,99.99
2016-11-06T02:21:58.064Z,99.99
2016-11-06T02:22:38.584Z,99.99
2016-11-06T02:23:19.126Z,99.99
2016-11-06T02:23:59.669Z,99.99
2016-11-06T02:24:40.190Z,99.99
2016-11-06T02:25:20.718Z,99.99
2016-11-06T02:26:01.242Z,99.99
2016-11-06T02:26:41.781Z,99.99
2016-11-06T02:27:22.308Z,99.99
2016-11-06T02:28:02.843Z,99.99
2016-11-06T02:28:43.377Z,99.99
2016-11-06T02:29:23.907Z,99.99
2016-11-06T02:30:04.444Z,99.99
2016-11-06T02:30:44.987Z,99.99
2016-11-06T02:31:25.528Z,99.99
2016-11-06T02:32:06.072Z,99.99
2016-11-06T02:32:46.586Z,99.99
2016-11-06T02:33:27.112Z,99.99
2016-11-06T02:34:07.647Z,99.99
2016-11-06T02:34:48.183Z,99.99
2016-11-06T02:35:28.727Z,99.99
2016-11-06T02:36:09.259Z,99.99
2016-11-06T02:36:49.787Z,99.99
2016-11-06T02:37:30.299Z,99.99
2016-11-06T02:38:10.825Z,99.99
2016-11-06T02:38:51.336Z,99.99
2016-11-06T02:39:31.870Z,99.99
2016-11-06T02:40:12.396Z,99.99
2016-11-06T02:40:52.930Z,99.99
2016-11-06T02:41:33.464Z,99.99
2016-11-06T02:42:14.116Z,99.99
2016-11-06T02:42:54.646Z,99.99
2016-11-06T02:43:35.162Z,99.99
2016-11-06T02:44:15.699Z,99.99
2016-11-06T02:44:56.240Z,99.99
2016-11-06T02:45:36.891Z,99.99
2016-11-06T02:46:17.432Z,99.99
2016-11-06T02:46:57.936Z,99.99
2016-11-06T02:47:38.477Z,99.99
2016-11-06T02:48:19.006Z,99.99
2016-11-06T02:48:59.547Z,99.99
2016-11-06T02:49:40.087Z,99.99
2016-11-06T02:50:20.622Z,99.99
2016-11-06T02:51:01.146Z,99.99
2016-11-06T02:51:41.678Z,99.99
2016-11-06T02:52:22.207Z,99.99
2016-11-06T02:53:02.749Z,99.99
2016-11-06T02:53:43.285Z,99.99
2016-11-06T02:54:23.811Z,99.99
2016-11-06T02:55:04.331Z,99.99
2016-11-06T02:55:44.865Z,99.99
2016-11-06T02:56:25.403Z,99.99
2016-11-06T02:57:05.939Z,99.99
2016-11-06T02:57:46.457Z,99.99
2016-11-06T02:58:26.985Z,99.99
2016-11-06T02:59:07.518Z,99.99
2016-11-06T02:59:48.056Z,99.99
2016-11-06T03:00:28.601Z,99.99
2016-11-06T03:01:09.152Z,99.99
2016-11-06T03:01:49.695Z,99.99
2016-11-06T03:02:30.229Z,99.99
2016-11-06T03:03:10.760Z,99.99
2016-11-06T03:03:51.345Z,99.99
2016-11-06T03:04:31.900Z,99.99
2016-11-06T03:05:12.541Z,99.99
2016-11-06T03:05:53.095Z,99.99
2016-11-06T03:06:33.623Z,99.99
2016-11-06T03:07:14.148Z,99.99
2016-11-06T03:07:54.675Z,99.99
2016-11-06T03:08:35.204Z,99.99
2016-11-06T03:09:15.736Z,99.99
2016-11-06T03:09:56.269Z,99.99
2016-11-06T03:10:36.776Z,99.99
2016-11-06T03:11:17.320Z,99.99
2016-11-06T03:11:57.855Z,99.99
2016-11-06T03:12:38.365Z,99.99
2016-11-06T03:13:18.898Z,99.99
2016-11-06T03:13:59.418Z,99.99
2016-11-06T03:14:39.955Z,99.99
2016-11-06T03:15:20.467Z,99.99
2016-11-06T03:16:00.994Z,99.99
2016-11-06T03:16:41.555Z,99.99
2016-11-06T03:17:22.082Z,99.99
2016-11-06T03:18:02.611Z,99.99
2016-11-06T03:18:43.126Z,99.99
2016-11-06T03:19:23.655Z,99.99
2016-11-06T03:20:04.179Z,99.99
2016-11-06T03:20:44.703Z,99.99
2016-11-06T03:21:25.225Z,99.99
2016-11-06T03:22:05.754Z,99.99
2016-11-06T03:22:46.284Z,99.99
2016-11-06T03:23:26.802Z,99.99
2016-11-06T03:24:07.333Z,99.99
2016-11-06T03:24:47.855Z,99.99
2016-11-06T03:25:28.389Z,99.99
2016-11-06T03:26:08.912Z,99.99
2016-11-06T03:26:49.452Z,99.99
2016-11-06T03:27:30.039Z,99.99
2016-11-06T03:28:10.575Z,99.99
2016-11-06T03:28:51.104Z,99.99
2016-11-06T03:29:31.633Z,99.99
2016-11-06T03:30:12.264Z,99.99
2016-11-06T03:30:52.797Z,99.99
2016-11-06T03:31:33.332Z,99.99
2016-11-06T03:32:13.851Z,99.99
2016-11-06T03:32:54.379Z,99.99
2016-11-06T03:33:34.901Z,99.99
2016-11-06T03:34:15.433Z,99.99
2016-11-06T03:34:55.955Z,99.99
2016-11-06T03:35:36.488Z,99.99
2016-11-06T03:36:17.023Z,99.99
2016-11-06T03:36:57.551Z,99.99
2016-11-06T03:37:38.088Z,99.99
2016-11-06T03:38:18.612Z,99.99
2016-11-06T03:38:59.143Z,99.99
2016-11-06T03:39:39.673Z,99.99
2016-11-06T03:40:20.197Z,99.99
2016-11-06T03:41:00.737Z,99.99
2016-11-06T03:41:41.271Z,99.99
2016-11-06T03:42:21.796Z,99.99
2016-11-06T03:43:02.331Z,99.99
2016-11-06T03:43:42.850Z,99.99
2016-11-06T03:44:23.386Z,99.99
2016-11-06T03:45:03.913Z,99.99
2016-11-06T03:45:44.442Z,99.99
2016-11-06T03:46:24.964Z,99.99
2016-11-06T03:47:05.496Z,99.99
2016-11-06T03:47:46.038Z,99.99
2016-11-06T03:48:26.582Z,99.99
2016-11-06T03:49:07.102Z,99.99
2016-11-06T03:49:47.649Z,99.99
2016-11-06T03:50:28.181Z,99.99
2016-11-06T03:51:08.722Z,99.99
2016-11-06T03:51:49.254Z,99.99
2016-11-06T03:52:29.792Z,99.99
2016-11-06T03:53:10.318Z,99.99
2016-11-06T03:53:50.846Z,99.99
2016-11-06T03:54:31.365Z,99.99
2016-11-06T03:55:11.899Z,99.99
2016-11-06T03:55:52.433Z,99.99
2016-11-06T03:56:32.956Z,99.99
2016-11-06T03:57:13.502Z,99.99
2016-11-06T03:57:54.019Z,99.99
2016-11-06T03:58:34.561Z,99.99
2016-11-06T03:59:15.094Z,99.99
2016-11-06T03:59:55.619Z,99.99
2016-11-06T04:00:36.142Z,99.99
2016-11-06T04:01:16.663Z,99.99
2016-11-06T04:01:57.190Z,99.99
2016-11-06T04:02:37.730Z,99.99
2016-11-06T04:03:18.254Z,99.99
2016-11-06T04:03:58.785Z,99.99
2016-11-06T04:04:39.316Z,99.99
2016-11-06T04:05:19.844Z,99.99
2016-11-06T04:06:00.377Z,99.99
2016-11-06T04:06:40.914Z,99.99
2016-11-06T04:07:21.425Z,99.99
2016-11-06T04:08:01.956Z,99.99
2016-11-06T04:08:42.483Z,99.99
2016-11-06T04:09:23.012Z,99.99
2016-11-06T04:10:03.544Z,99.99
2016-11-06T04:10:44.059Z,99.99
2016-11-06T04:11:24.595Z,99.99
2016-11-06T04:12:05.129Z,99.99
2016-11-06T04:12:45.663Z,99.99
2016-11-06T04:13:26.208Z,99.99
2016-11-06T04:14:06.731Z,99.99
2016-11-06T04:14:47.260Z,99.99
2016-11-06T04:15:27.802Z,99.99
2016-11-06T04:16:08.339Z,99.99
2016-11-06T04:16:48.862Z,99.99
2016-11-06T04:17:29.416Z,99.99
2016-11-06T04:18:09.930Z,99.99
2016-11-06T04:18:50.463Z,99.99
2016-11-06T04:19:31.000Z,99.99
2016-11-06T04:20:11.514Z,99.99
2016-11-06T04:20:52.046Z,99.99
2016-11-06T04:21:32.573Z,99.99
2016-11-06T04:22:13.120Z,99.99
2016-11-06T04:22:53.657Z,99.99
2016-11-06T04:23:34.181Z,99.99
2016-11-06T04:24:14.721Z,99.99
2016-11-06T04:24:55.248Z,99.99
2016-11-06T04:25:35.781Z,99.99
2016-11-06T04:26:16.313Z,99.99
2016-11-06T04:26:56.854Z,99.99
2016-11-06T04:27:37.392Z,99.99
2016-11-06T04:28:17.905Z,99.99
2016-11-06T04:28:58.442Z,99.99
2016-11-06T04:29:38.977Z,99.99
2016-11-06T04:30:19.515Z,99.99
2016-11-06T04:31:00.056Z,99.99
2016-11-06T04:31:40.556Z,99.99
2016-11-06T04:32:21.081Z,99.99
2016-11-06T04:33:01.625Z,99.99
2016-11-06T04:33:42.161Z,99.99
2016-11-06T04:34:22.684Z,99.99
2016-11-06T04:35:03.223Z,99.99
2016-11-06T04:35:43.746Z,99.99
2016-11-06T04:36:24.279Z,99.99
2016-11-06T04:37:04.802Z,99.99
2016-11-06T04:37:45.319Z,99.99
2016-11-06T04:38:25.840Z,99.99
2016-11-06T04:39:06.382Z,99.99
2016-11-06T04:39:46.907Z,99.99
2016-11-06T04:40:27.420Z,99.99
2016-11-06T04:41:07.940Z,99.99
2016-11-06T04:41:48.472Z,99.99
2016-11-06T04:42:29.003Z,99.99
2016-11-06T04:43:09.531Z,99.99
2016-11-06T04:43:50.064Z,99.99
2016-11-06T04:44:30.600Z,99.99
2016-11-06T04:45:11.139Z,99.99
2016-11-06T04:45:51.677Z,99.99
2016-11-06T04:46:32.211Z,99.99
2016-11-06T04:47:12.734Z,99.99
2016-11-06T04:47:53.261Z,99.99
2016-11-06T04:48:33.789Z,99.99
2016-11-06T04:49:14.321Z,99.99
2016-11-06T04:49:54.841Z,99.99
2016-11-06T04:50:35.374Z,99.99
2016-11-06T04:51:15.912Z,99.99
2016-11-06T04:51:56.447Z,99.99
2016-11-06T04:52:36.964Z,99.99
2016-11-06T04:53:17.487Z,99.99
2016-11-06T04:53:57.989Z,99.99
2016-11-06T04:54:38.530Z,99.99
2016-11-06T04:55:19.060Z,99.99
2016-11-06T04:55:59.582Z,99.99
2016-11-06T04:56:40.115Z,99.99
2016-11-06T04:57:20.639Z,99.99
2016-11-06T04:58:01.164Z,99.99
2016-11-06T04:58:41.699Z,99.99
2016-11-06T04:59:22.237Z,99.99
2016-11-06T05:00:02.766Z,99.99
2016-11-06T05:00:43.290Z,99.99
2016-11-06T05:01:23.816Z,99.99
2016-11-06T05:02:04.342Z,99.99
2016-11-06T05:02:44.869Z,99.99
2016-11-06T05:03:25.391Z,99.99
2016-11-06T05:04:05.926Z,99.99
2016-11-06T05:04:46.466Z,99.99
2016-11-06T05:05:26.972Z,99.99
2016-11-06T05:06:07.504Z,99.99
2016-11-06T05:06:48.049Z,99.99
2016-11-06T05:07:28.593Z,99.99
2016-11-06T05:08:09.119Z,99.99
2016-11-06T05:08:49.644Z,99.99
2016-11-06T05:09:30.172Z,99.99
2016-11-06T05:10:10.704Z,99.99
2016-11-06T05:10:51.252Z,99.99
2016-11-06T05:11:31.786Z,99.99
2016-11-06T05:12:12.323Z,99.99
2016-11-06T05:12:52.847Z,99.99
2016-11-06T05:13:33.372Z,99.99
2016-11-06T05:14:13.902Z,99.99
2016-11-06T05:14:54.438Z,99.99
2016-11-06T05:15:34.941Z,99.99
2016-11-06T05:16:15.480Z,99.99
2016-11-06T05:16:55.989Z,99.99
2016-11-06T05:17:36.524Z,99.99
2016-11-06T05:18:17.030Z,99.99
2016-11-06T05:18:57.555Z,99.99
2016-11-06T05:19:38.074Z,99.99
2016-11-06T05:20:18.598Z,99.99
2016-11-06T05:20:59.128Z,99.99
2016-11-06T05:21:39.651Z,99.99
2016-11-06T05:22:20.173Z,99.99
2016-11-06T05:23:00.694Z,99.99
2016-11-06T05:23:41.230Z,99.99
2016-11-06T05:24:21.747Z,99.99
2016-11-06T05:25:02.277Z,99.99
2016-11-06T05:25:42.800Z,99.99
2016-11-06T05:26:23.324Z,99.99
2016-11-06T05:27:03.838Z,99.99
2016-11-06T05:27:44.348Z,99.99
2016-11-06T05:28:24.878Z,99.99
2016-11-06T05:29:05.389Z,99.99
2016-11-06T05:29:45.897Z,99.99
2016-11-06T05:30:26.428Z,99.99
2016-11-06T05:31:06.956Z,99.99
2016-11-06T05:31:47.490Z,99.99
2016-11-06T05:32:28.022Z,99.99
2016-11-06T05:33:08.534Z,99.99
2016-11-06T05:33:49.077Z,99.99
2016-11-06T05:34:29.599Z,99.99
2016-11-06T05:35:10.120Z,99.99
2016-11-06T05:35:50.654Z,99.99
2016-11-06T05:36:31.185Z,99.99
2016-11-06T05:37:11.715Z,99.99
2016-11-06T05:37:52.252Z,99.99
2016-11-06T05:38:32.793Z,99.99
2016-11-06T05:39:13.317Z,99.99
2016-11-06T05:39:53.838Z,99.99
2016-11-06T05:40:34.365Z,99.99
2016-11-06T05:41:14.877Z,99.99
2016-11-06T05:41:55.398Z,99.99
2016-11-06T05:42:35.924Z,99.99
2016-11-06T05:43:16.458Z,99.99
2016-11-06T05:43:56.995Z,99.99
2016-11-06T05:44:37.539Z,99.99
2016-11-06T05:45:18.057Z,99.99
2016-11-06T05:45:58.563Z,99.99
2016-11-06T05:46:39.085Z,99.99
2016-11-06T05:47:19.613Z,99.99
2016-11-06T05:48:00.138Z,99.99
2016-11-06T05:48:40.666Z,99.99
2016-11-06T05:49:21.185Z,99.99
2016-11-06T05:50:01.699Z,99.99
2016-11-06T05:50:42.235Z,99.99
2016-11-06T05:51:22.763Z,99.99
2016-11-06T05:52:03.291Z,99.99
2016-11-06T05:52:43.817Z,99.99
2016-11-06T05:53:24.348Z,99.99
2016-11-06T05:54:04.868Z,99.99
2016-11-06T05:54:45.373Z,99.99
2016-11-06T05:55:25.902Z,99.99
2016-11-06T05:56:06.438Z,99.99
2016-11-06T05:56:46.965Z,99.99
2016-11-06T05:57:27.504Z,99.99
2016-11-06T05:58:08.011Z,99.99
2016-11-06T05:58:48.517Z,99.99
2016-11-06T05:59:29.045Z,99.99
2016-11-06T06:00:09.540Z,99.99
2016-11-06T06:00:50.072Z,99.99
2016-11-06T06:01:30.608Z,99.99
2016-11-06T06:02:11.149Z,99.99
2016-11-06T06:02:51.694Z,99.99
2016-11-06T06:03:32.202Z,99.99
2016-11-06T06:04:12.732Z,99.99
2016-11-06T06:04:53.247Z,99.99
2016-11-06T06:05:33.758Z,99.99
2016-11-06T06:06:14.261Z,99.99
2016-11-06T06:06:54.792Z,99.99
2016-11-06T06:07:35.323Z,99.99
2016-11-06T06:08:15.831Z,99.99
2016-11-06T06:08:56.346Z,99.99
2016-11-06T06:09:36.843Z,99.99
2016-11-06T06:10:17.365Z,99.99
2016-11-06T06:10:57.892Z,99.99
2016-11-06T06:11:38.398Z,99.99
2016-11-06T06:12:18.941Z,99.99
2016-11-06T06:12:59.468Z,99.99
2016-11-06T06:13:39.998Z,99.99
2016-11-06T06:14:20.513Z,99.99
2016-11-06T06:15:01.040Z,99.99
2016-11-06T06:15:41.569Z,99.99
2016-11-06T06:16:22.093Z,99.99
2016-11-06T06:17:02.619Z,99.99
2016-11-06T06:17:43.142Z,99.99
2016-11-06T06:18:23.664Z,99.99
2016-11-06T06:19:04.195Z,99.99
2016-11-06T06:19:44.696Z,99.99
2016-11-06T06:20:25.227Z,99.99
2016-11-06T06:21:05.747Z,99.99
2016-11-06T06:21:46.280Z,99.99
2016-11-06T06:22:26.793Z,99.99
2016-11-06T06:23:07.362Z,99.99
2016-11-06T06:23:47.860Z,99.99
2016-11-06T06:24:28.390Z,99.99
2016-11-06T06:25:08.909Z,99.99
2016-11-06T06:25:49.428Z,99.99
2016-11-06T06:26:29.933Z,99.99
2016-11-06T06:27:10.445Z,99.99
2016-11-06T06:27:50.975Z,99.99
2016-11-06T06:28:31.504Z,99.99
2016-11-06T06:29:12.044Z,99.99
2016-11-06T06:29:52.602Z,99.99
2016-11-06T06:30:33.076Z,99.99
2016-11-06T06:31:13.611Z,99.99
2016-11-06T06:31:54.143Z,99.99
2016-11-06T06:32:34.669Z,99.99
2016-11-06T06:33:15.196Z,99.99
2016-11-06T06:33:55.714Z,99.99
2016-11-06T06:34:36.245Z,99.99
2016-11-06T06:35:16.750Z,99.99
2016-11-06T06:35:57.276Z,99.99
2016-11-06T06:36:37.783Z,99.99
2016-11-06T06:37:18.299Z,99.99
2016-11-06T06:37:58.819Z,99.99
2016-11-06T06:38:39.363Z,99.99
2016-11-06T06:39:19.890Z,99.99
2016-11-06T06:40:00.437Z,99.99
2016-11-06T06:40:40.949Z,99.99
2016-11-06T06:41:21.457Z,99.99
2016-11-06T06:42:01.962Z,99.99
2016-11-06T06:42:42.467Z,99.99
2016-11-06T06:43:23.002Z,99.99
2016-11-06T06:44:03.544Z,99.99
2016-11-06T06:44:44.080Z,99.99
2016-11-06T06:45:24.606Z,99.99
2016-11-06T06:46:05.129Z,99.99
2016-11-06T06:46:45.670Z,99.99
2016-11-06T06:47:26.205Z,99.99
2016-11-06T06:48:06.746Z,99.99
2016-11-06T06:48:47.254Z,99.99
2016-11-06T06:49:27.773Z,99.99
2016-11-06T06:50:08.299Z,99.99
2016-11-06T06:50:48.818Z,99.99
2016-11-06T06:51:29.345Z,99.99
2016-11-06T06:52:09.873Z,99.99
2016-11-06T06:52:50.392Z,99.99
2016-11-06T06:53:30.917Z,99.99
2016-11-06T06:54:11.442Z,99.99
2016-11-06T06:54:51.972Z,99.99
2016-11-06T06:55:32.478Z,99.99
2016-11-06T06:56:12.994Z,99.99
2016-11-06T06:56:53.520Z,99.99
2016-11-06T06:57:34.069Z,99.99
2016-11-06T06:58:14.586Z,99.99
2016-11-06T06:58:55.114Z,99.99
2016-11-06T06:59:35.653Z,99.99
2016-11-06T07:00:16.172Z,99.99
2016-11-06T07:00:56.727Z,99.99
2016-11-06T07:01:37.261Z,99.99
2016-11-06T07:02:17.779Z,99.99
2016-11-06T07:02:58.308Z,99.99
2016-11-06T07:03:38.831Z,99.99
2016-11-06T07:04:19.363Z,99.99
2016-11-06T07:04:59.895Z,99.99
2016-11-06T07:05:40.411Z,99.99
2016-11-06T07:06:20.938Z,99.99
2016-11-06T07:07:01.471Z,99.99
2016-11-06T07:07:42.011Z,99.99
2016-11-06T07:08:22.530Z,99.99
2016-11-06T07:09:03.050Z,99.99
2016-11-06T07:09:43.588Z,99.99
2016-11-06T07:10:24.114Z,99.99
2016-11-06T07:11:04.647Z,99.99
2016-11-06T07:11:45.179Z,99.99
2016-11-06T07:12:25.714Z,99.99
2016-11-06T07:13:06.244Z,99.99
2016-11-06T07:13:46.788Z,99.99
2016-11-06T07:14:27.325Z,99.99
2016-11-06T07:15:07.861Z,99.99
2016-11-06T07:15:48.382Z,99.99
2016-11-06T07:16:28.912Z,99.99
2016-11-06T07:17:09.445Z,99.99
2016-11-06T07:17:49.982Z,99.99
2016-11-06T07:18:30.522Z,99.99
2016-11-06T07:19:11.045Z,99.99
2016-11-06T07:19:51.583Z,99.99
2016-11-06T07:20:32.194Z,99.99
2016-11-06T07:21:12.879Z,99.99
2016-11-06T07:21:53.405Z,99.99
2016-11-06T07:22:33.952Z,99.99
2016-11-06T07:23:14.507Z,99.99
2016-11-06T07:23:55.218Z,99.99
2016-11-06T07:24:35.754Z,99.99
2016-11-06T07:25:16.417Z,99.99
2016-11-06T07:25:56.935Z,99.99
2016-11-06T07:26:37.465Z,99.99
2016-11-06T07:27:18.017Z,99.99
2016-11-06T07:27:58.629Z,99.99
2016-11-06T07:28:39.252Z,99.99
2016-11-06T07:29:19.788Z,99.99
2016-11-06T07:30:00.383Z,99.99
2016-11-06T07:30:40.915Z,99.99
2016-11-06T07:31:21.544Z,99.99
2016-11-06T07:32:02.069Z,99.99
2016-11-06T07:32:42.625Z,99.99
2016-11-06T07:33:23.203Z,99.99
2016-11-06T07:34:03.796Z,99.99
2016-11-06T07:34:44.385Z,99.99
2016-11-06T07:35:24.924Z,99.99
2016-11-06T07:36:05.474Z,99.99
2016-11-06T07:36:46.020Z,99.99
2016-11-06T07:37:26.573Z,99.99
2016-11-06T07:38:07.128Z,99.99
2016-11-06T07:38:47.667Z,99.99
2016-11-06T07:39:28.198Z,99.99
2016-11-06T07:40:08.733Z,99.99
2016-11-06T07:40:49.255Z,99.99
2016-11-06T07:41:30.020Z,99.99
2016-11-06T07:42:10.546Z,99.99
2016-11-06T07:42:51.214Z,99.99
2016-11-06T07:43:31.750Z,99.99
2016-11-06T07:44:12.285Z,99.99
2016-11-06T07:44:52.811Z,99.99
2016-11-06T07:45:33.383Z,99.99
2016-11-06T07:46:13.935Z,99.99
2016-11-06T07:46:54.477Z,99.99
2016-11-06T07:47:35.033Z,99.99
2016-11-06T07:48:15.553Z,99.99
2016-11-06T07:48:56.076Z,99.99
2016-11-06T07:49:36.599Z,99.99
2016-11-06T07:50:17.125Z,99.99
2016-11-06T07:50:57.651Z,99.99
2016-11-06T07:51:38.147Z,99.99
2016-11-06T07:52:18.688Z,99.99
2016-11-06T07:52:59.216Z,99.99
2016-11-06T07:53:39.745Z,99.99
2016-11-06T07:54:20.275Z,99.99
2016-11-06T07:55:00.812Z,99.99
2016-11-06T07:55:41.353Z,99.99
2016-11-06T07:56:21.884Z,99.99
2016-11-06T07:57:02.422Z,99.99
2016-11-06T07:57:42.940Z,99.99
2016-11-06T07:58:23.472Z,99.99
2016-11-06T07:59:04.003Z,99.99
2016-11-06T07:59:44.535Z,99.99
2016-11-06T08:00:25.054Z,99.99
2016-11-06T08:01:05.592Z,99.99
2016-11-06T08:01:46.112Z,99.99
2016-11-06T08:02:26.644Z,99.99
2016-11-06T08:03:07.173Z,99.99
2016-11-06T08:03:47.688Z,99.99
2016-11-06T08:04:28.226Z,99.99
2016-11-06T08:05:08.738Z,99.99
2016-11-06T08:05:49.258Z,99.99
2016-11-06T08:06:29.791Z,99.99
2016-11-06T08:07:10.323Z,99.99
2016-11-06T08:07:50.863Z,99.99
2016-11-06T08:08:31.396Z,99.99
2016-11-06T08:09:11.924Z,99.99
2016-11-06T08:09:52.433Z,99.99
2016-11-06T08:10:32.944Z,99.99
2016-11-06T08:11:13.487Z,99.99
2016-11-06T08:11:53.988Z,99.99
2016-11-06T08:12:34.497Z,99.99
2016-11-06T08:13:15.008Z,99.99
2016-11-06T08:13:55.538Z,99.99
2016-11-06T08:14:36.053Z,99.99
2016-11-06T08:15:16.573Z,99.99
2016-11-06T08:15:57.108Z,99.99
2016-11-06T08:16:37.625Z,99.99
2016-11-06T08:17:18.163Z,99.99
2016-11-06T08:17:58.701Z,99.99
2016-11-06T08:18:39.250Z,99.99
2016-11-06T08:19:19.763Z,99.99
2016-11-06T08:20:00.292Z,99.99
2016-11-06T08:20:40.806Z,99.99
2016-11-06T08:21:21.308Z,99.99
2016-11-06T08:22:01.836Z,99.99
2016-11-06T08:22:42.367Z,99.99
2016-11-06T08:23:22.920Z,99.99
2016-11-06T08:24:03.454Z,99.99
2016-11-06T08:24:43.981Z,99.99
2016-11-06T08:25:24.511Z,99.99
2016-11-06T08:26:05.040Z,99.99
2016-11-06T08:26:45.562Z,99.99
2016-11-06T08:27:26.084Z,99.99
2016-11-06T08:28:06.627Z,99.99
2016-11-06T08:28:47.139Z,99.99
2016-11-06T08:29:27.651Z,99.99
2016-11-06T08:30:08.180Z,99.99
2016-11-06T08:30:48.690Z,99.99
2016-11-06T08:31:29.238Z,99.99
2016-11-06T08:32:09.776Z,99.99
2016-11-06T08:32:50.286Z,99.99
2016-11-06T08:33:30.818Z,99.99
2016-11-06T08:34:11.328Z,99.99
2016-11-06T08:34:51.862Z,99.99
2016-11-06T08:35:32.381Z,99.99
2016-11-06T08:36:12.911Z,99.99
2016-11-06T08:36:53.422Z,99.99
2016-11-06T08:37:33.943Z,99.99
2016-11-06T08:38:14.473Z,99.99
2016-11-06T08:38:54.991Z,99.99
2016-11-06T08:39:35.519Z,99.99
2016-11-06T08:40:16.049Z,99.99
2016-11-06T08:40:56.561Z,99.99
2016-11-06T08:41:37.077Z,99.99
2016-11-06T08:42:17.604Z,99.99
2016-11-06T08:42:58.143Z,99.99
2016-11-06T08:43:38.651Z,99.99
2016-11-06T08:44:19.180Z,99.99
2016-11-06T08:44:59.688Z,99.99
2016-11-06T08:45:40.213Z,99.99
2016-11-06T08:46:20.724Z,99.99
2016-11-06T08:47:01.255Z,99.99
2016-11-06T08:47:41.772Z,99.99
2016-11-06T08:48:22.282Z,99.99
2016-11-06T08:49:02.807Z,99.99
2016-11-06T08:49:43.308Z,99.99
2016-11-06T08:50:23.836Z,99.99
2016-11-06T08:51:04.354Z,99.99
2016-11-06T08:51:44.850Z,99.99
2016-11-06T08:52:25.357Z,99.99
2016-11-06T08:53:06.101Z,99.99
2016-11-06T08:55:00.416Z,99.99
2016-11-06T08:55:40.950Z,98.45
2016-11-06T08:56:21.475Z,96.45
2016-11-06T08:57:01.985Z,96.45
2016-11-06T08:57:42.510Z,97.41
2016-11-06T08:58:23.031Z,97.12
2016-11-06T08:59:03.547Z,97.6
2016-11-06T08:59:44.067Z,97.69
2016-11-06T09:00:24.582Z,97.6
2016-11-06T09:01:05.108Z,97.5
2016-11-06T09:01:45.635Z,97.6
2016-11-06T09:02:26.163Z,97.69
2016-11-06T09:03:06.698Z,97.31
2016-11-06T09:03:47.219Z,97.97
2016-11-06T09:04:27.735Z,97.78
2016-11-06T09:05:08.263Z,98.17
2016-11-06T09:05:48.804Z,97.69
2016-11-06T09:06:29.337Z,96.74
2016-11-06T09:07:09.851Z,95.22
2016-11-06T09:07:50.363Z,94.08
2016-11-06T09:08:30.872Z,94.65
2016-11-06T09:09:11.385Z,95.03
2016-11-06T09:09:51.885Z,95.12
2016-11-06T09:10:32.386Z,94.93
2016-11-06T09:11:12.895Z,95.32
2016-11-06T09:11:53.406Z,95.32